Layer de la Haye, United Kingdom
Current Conditions -  °F | °C
As of 10:50 PM on Thursday 23 Oct 2014 (Local Time) from EGUW Reporting Station
Broken Clouds Broken Clouds  
Wind Chill: 14°   Ceiling: 1500
Heat Index: 14°   Visibility: 6mi
Dew Point: 13°   Wind: 9mph
Humidity: 94%   Direction: 190°S
Pressure: 30"   Gusts: NA
Location:  51.85°N, 0.86°E
Report Text: EGUW 232150Z 19008KT 9999 SCT008 BKN015 14/13 Q1016 GRN NOSIG
Loading
Personal Weather Stations






























Interactive Weather Map
Tropical Storm Tracking
New forecast layout! Learn more

10-Day Weather Forecast

Advertisements
Track Severe Weather on mobile